Time;durP1;ratioP1;P1;durP2;ratioP2;P2;SDS_P1;SDS_P2;PMS_P1;PMS_P2;Temp;Humidity;BMP_temperature;BMP_pressure;BME280_temperature;BME280_humidity;BME280_pressure;Samples;Min_cycle;Max_cycle;Signal;HPM_P1;HPM_P2
2021/01/29 00:00:15;;;;;;;0.75;0.55;;;11.80;90.50;;;;;;4973322;28;20110;-90
2021/01/29 00:02:41;;;;;;;0.50;0.50;;;;;;;;;;4971968;28;20055;-91
2021/01/29 00:05:08;;;;;;;2.65;0.60;;;11.70;98.40;;;;;;4973519;28;20114;-89
2021/01/29 00:07:34;;;;;;;0.40;0.40;;;11.80;90.40;;;;;;4974097;28;20023;-90
2021/01/29 00:10:00;;;;;;;0.50;0.50;;;;;;;;;;4972459;28;20038;-89
2021/01/29 00:12:26;;;;;;;3.90;0.70;;;;;;;;;;4972684;28;20121;-91
2021/01/29 00:14:52;;;;;;;6.20;0.90;;;;;;;;;;4973439;28;20437;-89
2021/01/29 00:17:18;;;;;;;1.25;0.55;;;11.60;98.80;;;;;;4969610;28;20039;-90
2021/01/29 00:19:44;;;;;;;0.93;0.90;;;;;;;;;;4972721;28;20025;-90
2021/01/29 00:22:10;;;;;;;0.95;0.75;;;;;;;;;;4968864;28;20038;-89
2021/01/29 00:24:37;;;;;;;1.15;0.80;;;11.70;88.80;;;;;;4969592;28;20114;-90
2021/01/29 00:27:03;;;;;;;1.02;0.82;;;;;;;;;;4971005;28;20377;-91
2021/01/29 00:29:29;;;;;;;1.13;0.65;;;;;;;;;;4973004;28;20023;-89
2021/01/29 00:31:55;;;;;;;1.20;0.95;;;;;;;;;;4968486;28;20088;-89
2021/01/29 00:34:21;;;;;;;3.28;1.50;;;;;;;;;;4972362;28;20396;-89
2021/01/29 00:36:47;;;;;;;2.45;0.80;;;;;;;;;;4972250;28;20022;-90
2021/01/29 00:39:13;;;;;;;1.55;0.70;;;;;;;;;;4971878;28;20085;-90
2021/01/29 00:41:39;;;;;;;0.85;0.68;;;;;;;;;;4971328;28;20031;-90
2021/01/29 00:44:05;;;;;;;2.10;1.15;;;;;;;;;;4973005;28;20031;-90
2021/01/29 00:46:31;;;;;;;2.72;1.52;;;;;;;;;;4972114;28;20034;-89
2021/01/29 00:48:57;;;;;;;3.10;0.95;;;;;;;;;;4968278;28;20031;-89
2021/01/29 00:51:23;;;;;;;0.63;0.32;;;;;;;;;;4968359;28;20129;-90
2021/01/29 00:53:49;;;;;;;1.80;0.73;;;;;;;;;;4971866;28;20062;-90
2021/01/29 00:56:15;;;;;;;0.80;0.50;;;;;;;;;;4973361;28;20535;-89
2021/01/29 00:58:41;;;;;;;0.98;0.45;;;;;;;;;;4971793;28;20041;-89
2021/01/29 01:01:07;;;;;;;1.02;0.50;;;;;;;;;;4970652;28;20436;-90
2021/01/29 01:03:33;;;;;;;0.55;0.30;;;;;;;;;;4969760;28;20030;-89
2021/01/29 01:05:59;;;;;;;0.45;0.30;;;11.70;97.50;;;;;;4971212;28;20027;-90
2021/01/29 01:08:25;;;;;;;6.75;1.88;;;;;;;;;;4973079;28;20038;-90
2021/01/29 01:10:51;;;;;;;1.25;0.80;;;;;;;;;;4971004;28;20562;-90
2021/01/29 01:13:17;;;;;;;1.50;0.50;;;;;;;;;;4972353;28;20039;-89
2021/01/29 01:15:43;;;;;;;0.60;0.43;;;;;;;;;;4971408;28;20018;-89
2021/01/29 01:18:10;;;;;;;0.25;0.25;;;;;;;;;;4975821;28;20061;-89
2021/01/29 01:20:36;;;;;;;0.80;0.40;;;;;;;;;;4975963;28;20476;-90
2021/01/29 01:23:02;;;;;;;0.85;0.77;;;;;;;;;;4976264;28;20023;-90
2021/01/29 01:25:29;;;;;;;0.50;0.50;;;;;;;;;;4975995;28;20039;-89
2021/01/29 01:27:55;;;;;;;5.97;0.60;;;;;;;;;;4975365;28;20054;-89
2021/01/29 01:30:24;;;;;;;0.47;0.40;;;11.60;83.90;;;;;;4971609;28;20027;-89
2021/01/29 01:32:50;;;;;;;0.32;0.30;;;;;;;;;;4975067;28;20046;-89
2021/01/29 01:35:17;;;;;;;0.30;0.30;;;11.70;81.90;;;;;;4976586;28;20093;-89
2021/01/29 01:37:43;;;;;;;0.60;0.60;;;;;;;;;;4971311;28;20058;-89
2021/01/29 01:40:10;;;;;;;0.90;0.52;;;;;;;;;;4973256;28;20480;-89
2021/01/29 01:42:36;;;;;;;0.30;0.30;;;;;;;;;;4970475;28;20035;-89
2021/01/29 01:45:24;;;;;;;0.85;0.40;;;11.80;80.00;;;;;;4975396;28;20668;-89
2021/01/29 01:47:50;;;;;;;0.30;0.30;;;;;;;;;;4974798;28;20046;-89
2021/01/29 01:50:16;;;;;;;0.20;0.20;;;;;;;;;;4976241;28;20618;-88
2021/01/29 01:52:43;;;;;;;1.95;0.47;;;12.10;78.80;;;;;;4970897;28;20061;-89
2021/01/29 01:55:14;;;;;;;0.22;0.22;;;12.10;79.00;;;;;;4983640;28;20392;-89
2021/01/29 01:57:43;;;;;;;0.30;0.30;;;12.10;78.20;;;;;;4973068;28;20031;-90
2021/01/29 02:00:14;;;;;;;0.55;0.22;;;12.00;79.00;;;;;;4972947;28;20027;-88
2021/01/29 02:02:48;;;;;;;3.58;0.57;;;12.10;77.60;;;;;;4973619;28;20460;-89
2021/01/29 02:05:25;;;;;;;0.95;0.30;;;12.20;77.60;;;;;;4973105;28;20034;-88
2021/01/29 02:07:57;;;;;;;0.50;0.50;;;12.10;76.20;;;;;;4972361;28;20464;-89
2021/01/29 02:10:23;;;;;;;0.45;0.40;;;;;;;;;;4971853;28;20031;-89
2021/01/29 02:12:49;;;;;;;0.88;0.63;;;;;;;;;;4975120;28;20035;-89
2021/01/29 02:15:18;;;;;;;0.50;0.50;;;12.20;76.50;;;;;;4971225;28;20023;-89
2021/01/29 02:18:02;;;;;;;2.72;0.55;;;12.10;92.90;;;;;;4973754;28;20027;-88
2021/01/29 02:20:52;;;;;;;0.47;0.40;;;12.00;92.60;;;;;;4974737;28;20114;-89
2021/01/29 02:23:49;;;;;;;0.43;0.38;;;12.20;75.70;;;;;;4973295;28;20094;-89
2021/01/29 02:27:04;;;;;;;0.65;0.40;;;12.20;92.40;;;;;;4972664;28;20084;-89
2021/01/29 02:29:30;;;;;;;3.03;0.40;;;;;;;;;;4975670;28;20115;-89
2021/01/29 02:32:41;;;;;;;0.30;0.30;;;11.80;92.10;;;;;;4966048;28;20097;-89
2021/01/29 02:35:21;;;;;;;0.52;0.30;;;12.30;80.20;;;;;;4934859;29;20048;-89
2021/01/29 02:37:56;;;;;;;0.47;0.30;;;;;;;;;;4930084;29;20094;-90
2021/01/29 02:40:32;;;;;;;0.43;0.30;;;12.10;93.90;;;;;;4933003;29;20050;-88
2021/01/29 02:42:58;;;;;;;0.28;0.28;;;;;;;;;;4917434;29;20600;-88
2021/01/29 02:45:48;;;;;;;0.30;0.30;;;12.10;77.10;;;;;;4931834;29;20062;-89
2021/01/29 02:48:43;;;;;;;0.20;0.20;;;12.20;77.30;;;;;;4888970;29;20029;-89
2021/01/29 02:51:38;;;;;;;0.43;0.28;;;12.00;78.50;;;;;;4876819;29;20036;-89
2021/01/29 02:54:25;;;;;;;0.47;0.40;;;12.00;79.10;;;;;;4876582;29;20044;-89
2021/01/29 02:57:05;;;;;;;0.20;0.20;;;11.90;92.60;;;;;;4890894;29;20039;-89
2021/01/29 02:59:40;;;;;;;0.20;0.20;;;11.80;78.70;;;;;;4892602;29;20092;-89
2021/01/29 03:02:14;;;;;;;0.35;0.35;;;11.90;78.30;;;;;;4879302;29;20111;-89
2021/01/29 03:04:55;;;;;;;0.65;0.40;;;12.00;93.60;;;;;;4858146;29;20494;-89
2021/01/29 03:07:51;;;;;;;0.93;0.50;;;12.00;77.50;;;;;;4878022;29;20036;-90
2021/01/29 03:10:32;;;;;;;0.52;0.32;;;11.90;77.40;;;;;;4877304;29;20140;-89
2021/01/29 03:13:06;;;;;;;0.30;0.30;;;12.00;76.80;;;;;;4867751;29;20146;-89
2021/01/29 03:15:43;;;;;;;0.22;0.22;;;11.80;92.60;;;;;;4892658;29;20028;-89
2021/01/29 03:18:20;;;;;;;0.30;0.30;;;12.10;82.50;;;;;;4894695;29;20032;-88
2021/01/29 03:20:53;;;;;;;0.30;0.30;;;12.10;76.30;;;;;;4894120;29;20040;-90
2021/01/29 03:23:33;;;;;;;0.20;0.20;;;11.90;90.00;;;;;;4880370;29;20033;-89
2021/01/29 03:26:06;;;;;;;0.40;0.30;;;12.10;76.50;;;;;;4952977;28;20105;-89
2021/01/29 03:28:42;;;;;;;3.13;0.68;;;12.00;77.50;;;;;;4970950;28;20086;-90
2021/01/29 03:31:12;;;;;;;8.73;2.87;;;12.00;78.90;;;;;;4981693;28;20038;-89
2021/01/29 03:33:40;;;;;;;10.27;2.88;;;11.90;79.00;;;;;;4970508;28;20031;-89
2021/01/29 03:36:09;;;;;;;13.45;4.18;;;11.80;80.80;;;;;;4970991;28;20502;-90
2021/01/29 03:38:44;;;;;;;17.45;4.70;;;11.70;80.60;;;;;;4971959;28;20038;-89
2021/01/29 03:41:27;;;;;;;3.42;1.33;;;11.60;95.10;;;;;;4971626;28;20033;-89
2021/01/29 03:44:11;;;;;;;2.10;1.33;;;11.70;95.10;;;;;;4971449;28;20396;-89
2021/01/29 03:46:36;;;;;;;0.50;0.50;;;;;;;;;;4970342;28;20050;-89
2021/01/29 03:49:03;;;;;;;1.15;0.57;;;;;;;;;;4968900;28;20102;-89
2021/01/29 03:51:53;;;;;;;0.30;0.30;;;11.80;80.10;;;;;;4972562;28;20518;-89
2021/01/29 03:54:29;;;;;;;0.40;0.40;;;11.80;76.70;;;;;;4973061;28;20049;-89
2021/01/29 03:57:03;;;;;;;1.38;0.82;;;12.00;92.50;;;;;;4971678;28;20114;-89
2021/01/29 03:59:29;;;;;;;0.22;0.22;;;;;;;;;;4965331;28;20489;-89
2021/01/29 04:01:55;;;;;;;2.08;1.00;;;;;;;;;;4966648;28;20094;-89
2021/01/29 04:04:24;;;;;;;3.58;1.13;;;;;;;;;;4972694;28;20502;-89
2021/01/29 04:07:08;;;;;;;1.60;1.50;;;11.70;79.10;;;;;;4970564;28;20030;-89
2021/01/29 04:09:41;;;;;;;1.50;0.75;;;11.70;77.20;;;;;;4973210;28;20022;-89
2021/01/29 04:12:07;;;;;;;2.92;0.75;;;;;;;;;;4956971;28;20117;-89
2021/01/29 04:14:49;;;;;;;1.67;0.70;;;11.80;89.90;;;;;;4971995;28;20034;-88
2021/01/29 04:17:23;;;;;;;0.77;0.55;;;11.70;80.30;;;;;;4973692;28;20027;-90
2021/01/29 04:19:55;;;;;;;1.75;0.85;;;11.60;93.90;;;;;;4968643;28;20131;-88
2021/01/29 04:22:24;;;;;;;0.90;0.60;;;11.70;76.90;;;;;;4971908;28;20105;-89
2021/01/29 04:24:59;;;;;;;0.95;0.60;;;11.70;76.20;;;;;;4972734;28;20105;-89
2021/01/29 04:27:27;;;;;;;5.47;1.35;;;11.50;79.00;;;;;;4965939;28;20035;-89
2021/01/29 04:30:01;;;;;;;1.75;0.77;;;11.50;79.80;;;;;;4970157;28;20035;-88
2021/01/29 04:32:34;;;;;;;1.80;0.80;;;11.50;78.40;;;;;;4972132;28;20071;-89
2021/01/29 04:35:00;;;;;;;1.33;0.75;;;;;;;;;;4971430;28;20089;-89
2021/01/29 04:37:32;;;;;;;1.45;0.73;;;11.70;77.60;;;;;;4972491;28;20117;-88
2021/01/29 04:40:02;;;;;;;2.05;0.90;;;11.80;93.50;;;;;;4968190;28;20030;-89
2021/01/29 04:42:43;;;;;;;1.23;0.60;;;;;;;;;;4972027;28;20035;-88
2021/01/29 04:45:30;;;;;;;0.80;0.52;;;11.90;77.80;;;;;;4975105;28;20035;-89
2021/01/29 04:48:08;;;;;;;1.40;0.70;;;11.80;74.30;;;;;;4974981;28;20179;-89
2021/01/29 04:51:10;;;;;;;0.70;0.57;;;11.90;73.40;;;;;;4972745;28;20110;-90
2021/01/29 04:54:03;;;;;;;1.90;0.93;;;11.80;91.00;;;;;;4973150;28;20123;-90
2021/01/29 04:56:50;;;;;;;3.08;0.60;;;12.00;90.90;;;;;;4991962;28;20085;-89
2021/01/29 04:59:26;;;;;;;1.90;0.70;;;12.10;71.70;;;;;;4976030;28;20067;-89
2021/01/29 05:01:52;;;;;;;0.40;0.40;;;;;;;;;;4975656;28;20419;-89
2021/01/29 05:04:42;;;;;;;0.57;0.52;;;12.20;90.70;;;;;;4975612;28;20027;-88
2021/01/29 05:07:46;;;;;;;1.13;0.40;;;12.20;90.80;;;;;;4974075;28;20027;-88
2021/01/29 05:10:50;;;;;;;0.20;0.20;;;12.30;84.40;;;;;;4970010;28;20037;-89
2021/01/29 05:13:43;;;;;;;0.40;0.40;;;12.10;90.20;;;;;;4974160;28;20035;-88
2021/01/29 05:16:25;;;;;;;0.55;0.55;;;;;;;;;;4975389;28;20026;-88
2021/01/29 05:19:09;;;;;;;0.63;0.40;;;;;;;;;;4974067;28;20520;-89
2021/01/29 05:21:53;;;;;;;0.35;0.35;;;;;;;;;;4972828;28;20037;-88
2021/01/29 05:24:25;;;;;;;0.30;0.30;;;;;;;;;;4962562;28;20033;-87
2021/01/29 05:27:06;;;;;;;0.30;0.30;;;12.30;65.90;;;;;;4974260;28;20054;-89
2021/01/29 05:29:32;;;;;;;0.20;0.20;;;;;;;;;;4971326;28;20027;-88
2021/01/29 05:31:58;;;;;;;0.30;0.30;;;;;;;;;;4974939;28;20042;-88
2021/01/29 05:34:27;;;;;;;0.30;0.30;;;;;;;;;;4975447;28;20031;-88
2021/01/29 05:37:24;;;;;;;2.40;0.43;;;12.50;86.00;;;;;;4975451;28;20049;-88
2021/01/29 05:40:04;;;;;;;0.30;0.30;;;12.40;86.10;;;;;;4974673;28;20018;-88
2021/01/29 05:42:55;;;;;;;1.33;0.50;;;12.50;66.10;;;;;;4973425;28;20027;-88
2021/01/29 05:45:42;;;;;;;0.30;0.30;;;12.50;72.00;;;;;;4973925;28;20027;-88
2021/01/29 05:48:49;;;;;;;0.40;0.30;;;12.50;66.20;;;;;;4973910;28;25108;-88
2021/01/29 05:51:34;;;;;;;0.38;0.38;;;12.50;86.90;;;;;;4959907;28;20077;-88
2021/01/29 05:54:27;;;;;;;0.50;0.50;;;12.60;87.00;;;;;;4973625;28;20304;-89
2021/01/29 05:57:08;;;;;;;0.32;0.32;;;12.70;87.50;;;;;;4972850;28;20091;-88
2021/01/29 05:59:43;;;;;;;0.40;0.40;;;;;;;;;;4970563;28;20027;-89
2021/01/29 06:02:09;;;;;;;0.50;0.50;;;;;;;;;;4975303;28;20089;-88
2021/01/29 06:05:08;;;;;;;0.50;0.45;;;12.40;67.40;;;;;;4974463;28;20034;-90
2021/01/29 06:07:49;;;;;;;0.40;0.40;;;12.40;87.80;;;;;;4972485;28;20050;-88
2021/01/29 06:10:44;;;;;;;0.30;0.30;;;12.40;86.10;;;;;;4974650;28;20031;-88
2021/01/29 06:13:10;;;;;;;0.28;0.28;;;;;;;;;;4966037;28;20034;-89
2021/01/29 06:15:48;;;;;;;1.50;1.05;;;;;;;;;;4975046;28;20341;-88
2021/01/29 06:18:35;;;;;;;0.30;0.30;;;12.20;85.80;;;;;;4973172;28;20027;-88
2021/01/29 06:21:08;;;;;;;0.43;0.43;;;12.20;65.80;;;;;;4973507;28;20078;-89
2021/01/29 06:23:34;;;;;;;0.85;0.35;;;;;;;;;;4971495;28;20039;-89
2021/01/29 06:26:21;;;;;;;0.80;0.60;;;12.30;86.90;;;;;;4974422;28;20453;-88
2021/01/29 06:29:03;;;;;;;0.40;0.40;;;12.10;66.40;;;;;;4974697;28;20034;-88
2021/01/29 06:31:56;;;;;;;1.45;0.70;;;12.10;66.30;;;;;;4969951;28;20499;-88
2021/01/29 06:34:53;;;;;;;0.47;0.40;;;12.20;85.60;;;;;;4969064;28;20500;-89
2021/01/29 06:37:31;;;;;;;0.32;0.32;;;;;;;;;;4968517;28;20026;-88
2021/01/29 06:40:15;;;;;;;2.83;0.85;;;;;;;;;;4967723;28;20423;-89
2021/01/29 06:42:54;;;;;;;0.68;0.30;;;;;;;;;;4965342;28;20077;-89
2021/01/29 06:45:49;;;;;;;0.40;0.32;;;12.10;83.10;;;;;;4955157;28;20023;-88
2021/01/29 06:48:24;;;;;;;0.55;0.50;;;;;;;;;;4961564;28;20117;-89
2021/01/29 06:51:27;;;;;;;0.47;0.35;;;11.90;82.60;;;;;;4985947;28;20038;-88
2021/01/29 06:54:14;;;;;;;0.50;0.50;;;12.20;82.20;;;;;;4964662;28;20055;-88
2021/01/29 06:57:02;;;;;;;0.98;0.40;;;12.10;61.80;;;;;;4964327;28;20023;-89
2021/01/29 06:59:37;;;;;;;0.47;0.40;;;;;;;;;;4966281;28;20073;-89
2021/01/29 07:02:06;;;;;;;0.55;0.50;;;;;;;;;;4968882;28;20260;-90
2021/01/29 07:04:58;;;;;;;0.40;0.40;;;12.30;82.50;;;;;;4967050;28;20442;-92
2021/01/29 07:07:24;;;;;;;4.47;0.55;;;;;;;;;;4967061;28;20031;-89
2021/01/29 07:10:20;;;;;;;1.27;0.45;;;12.10;61.40;;;;;;4967408;28;20023;-89
2021/01/29 07:13:10;;;;;;;1.52;0.55;;;12.10;62.20;;;;;;4962494;28;20039;-89
2021/01/29 07:16:01;;;;;;;0.30;0.30;;;11.90;61.40;;;;;;4963353;28;20184;-89
2021/01/29 07:19:08;;;;;;;0.52;0.30;;;11.90;69.80;;;;;;4959304;28;20034;-86
2021/01/29 07:21:51;;;;;;;0.30;0.30;;;12.10;63.30;;;;;;4978465;28;20035;-85
2021/01/29 07:24:41;;;;;;;0.40;0.40;;;12.00;63.50;;;;;;4963934;28;20035;-85
2021/01/29 07:27:35;;;;;;;0.22;0.22;;;11.90;62.90;;;;;;4959953;28;20037;-85
2021/01/29 07:30:18;;;;;;;0.40;0.40;;;11.90;62.70;;;;;;4978380;28;20026;-85
2021/01/29 07:33:09;;;;;;;0.80;0.50;;;11.90;62.90;;;;;;4965721;28;20027;-86
2021/01/29 07:35:55;;;;;;;2.15;1.95;;;12.30;61.90;;;;;;4961745;28;20027;-83
2021/01/29 07:38:50;;;;;;;0.50;0.50;;;11.70;69.90;;;;;;4963221;28;20027;-86
2021/01/29 07:41:52;;;;;;;1.70;1.60;;;11.70;81.20;;;;;;4963887;28;20039;-87
2021/01/29 07:44:27;;;;;;;0.43;0.40;;;11.70;60.20;;;;;;4971997;28;20065;-88
2021/01/29 07:46:53;;;;;;;0.30;0.30;;;;;;;;;;4967805;28;20023;-88
2021/01/29 07:49:35;;;;;;;0.30;0.30;;;11.90;60.40;;;;;;4968806;28;20037;-88
2021/01/29 07:52:18;;;;;;;0.60;0.57;;;12.10;65.10;;;;;;4971253;28;20026;-87
2021/01/29 07:54:54;;;;;;;0.88;0.40;;;11.80;59.70;;;;;;4970877;28;20031;-88
2021/01/29 07:57:20;;;;;;;2.83;0.73;;;;;;;;;;4970334;28;20034;-90
2021/01/29 07:59:49;;;;;;;8.35;1.17;;;;;;;;;;4969586;28;20019;-88
2021/01/29 08:02:48;;;;;;;0.43;0.43;;;11.70;66.70;;;;;;4969073;28;20055;-88
2021/01/29 08:05:30;;;;;;;0.38;0.38;;;11.80;69.00;;;;;;4969440;28;20615;-85
2021/01/29 08:08:02;;;;;;;1.00;0.63;;;11.80;60.10;;;;;;4966474;28;20047;-86
2021/01/29 08:10:37;;;;;;;0.60;0.43;;;11.60;61.60;;;;;;4970098;28;20116;-85
2021/01/29 08:13:03;;;;;;;2.47;0.50;;;;;;;;;;4970547;28;20113;-87
2021/01/29 08:15:47;;;;;;;0.57;0.50;;;11.90;59.50;;;;;;4970696;28;20500;-86
2021/01/29 08:19:02;;;;;;;2.28;1.33;;;12.00;80.30;;;;;;4956166;28;20398;-85
2021/01/29 08:22:05;;;;;;;2.15;0.60;;;12.10;58.80;;;;;;4926633;29;20028;-85
2021/01/29 08:24:52;;;;;;;0.40;0.38;;;12.00;79.30;;;;;;4927030;29;20030;-87
2021/01/29 08:27:54;;;;;;;0.30;0.30;;;12.40;58.70;;;;;;4926703;29;20590;-87
2021/01/29 08:30:32;;;;;;;0.32;0.32;;;12.60;68.40;;;;;;4926609;29;20497;-84
2021/01/29 08:33:16;;;;;;;1.95;0.63;;;13.10;56.10;;;;;;4928139;29;20043;-86
2021/01/29 08:35:53;;;;;;;1.52;0.50;;;13.60;54.30;;;;;;4910422;29;20180;-86
2021/01/29 08:38:42;;;;;;;0.60;0.60;;;13.60;62.80;;;;;;4928524;29;20071;-85
2021/01/29 08:41:28;;;;;;;0.22;0.20;;;13.70;52.70;;;;;;4927722;29;20067;-86
2021/01/29 08:44:00;;;;;;;0.38;0.38;;;;;;;;;;4926878;29;20020;-87
2021/01/29 08:46:43;;;;;;;0.85;0.50;;;14.40;51.10;;;;;;4926658;29;20036;-87
2021/01/29 08:49:34;;;;;;;12.23;1.23;;;14.80;69.00;;;;;;4927738;29;20044;-87
2021/01/29 08:52:25;;;;;;;0.57;0.57;;;15.10;48.90;;;;;;4929029;29;20074;-89
2021/01/29 08:55:01;;;;;;;0.32;0.32;;;15.30;48.20;;;;;;4939186;28;20035;-89
2021/01/29 08:58:02;;;;;;;0.95;0.40;;;15.60;67.70;;;;;;4970345;28;20063;-87
2021/01/29 09:00:31;;;;;;;2.58;0.98;;;15.60;46.80;;;;;;4926671;29;20039;-87
2021/01/29 09:03:15;;;;;;;1.70;0.55;;;15.60;66.10;;;;;;4932496;29;20047;-89
2021/01/29 09:05:44;;;;;;;1.10;0.52;;;15.70;47.60;;;;;;4916198;29;20039;-88
2021/01/29 09:08:17;;;;;;;0.65;0.40;;;15.90;46.90;;;;;;4911284;29;20035;-85
2021/01/29 09:11:00;;;;;;;0.90;0.50;;;15.80;65.30;;;;;;4909850;29;20032;-86
2021/01/29 09:13:27;;;;;;;2.75;0.85;;;15.80;45.10;;;;;;4928098;29;20043;-88
2021/01/29 09:16:24;;;;;;;0.65;0.40;;;15.90;45.30;;;;;;4926916;29;20071;-88
2021/01/29 09:19:08;;;;;;;1.17;0.52;;;15.80;44.10;;;;;;4923588;29;20130;-87
2021/01/29 09:21:52;;;;;;;0.77;0.50;;;15.50;63.90;;;;;;4920436;29;20024;-85
2021/01/29 09:24:48;;;;;;;0.43;0.35;;;15.30;63.40;;;;;;4925684;29;20259;-86
2021/01/29 09:27:25;;;;;;;0.40;0.40;;;15.00;44.40;;;;;;4926665;29;20016;-88
2021/01/29 09:29:56;;;;;;;0.68;0.45;;;14.60;46.60;;;;;;4930563;29;20075;-88
2021/01/29 09:32:45;;;;;;;3.30;0.45;;;14.50;46.90;;;;;;4931983;29;20079;-89
2021/01/29 09:35:19;;;;;;;7.97;0.70;;;14.30;46.70;;;;;;4937646;28;20036;-86
2021/01/29 09:37:50;;;;;;;3.92;0.88;;;14.10;47.10;;;;;;4967832;28;20030;-85
2021/01/29 09:40:35;;;;;;;4.80;0.70;;;14.10;66.90;;;;;;4970280;28;20508;-86
2021/01/29 09:43:12;;;;;;;2.85;1.15;;;13.90;46.80;;;;;;4973485;28;20085;-86
2021/01/29 09:45:40;;;;;;;8.65;2.05;;;13.80;47.10;;;;;;4973226;28;20073;-85
2021/01/29 09:48:11;;;;;;;1.00;0.75;;;14.00;47.50;;;;;;4970948;28;20058;-86
2021/01/29 09:50:38;;;;;;;0.65;0.65;;;;;;;;;;4970091;28;20038;-88
2021/01/29 09:53:04;;;;;;;2.55;0.95;;;;;;;;;;4974083;28;20031;-88
2021/01/29 09:55:37;;;;;;;4.72;0.63;;;15.20;49.10;;;;;;4967823;28;20491;-85
2021/01/29 09:58:11;;;;;;;2.38;0.73;;;;;;;;;;4970701;28;20089;-87
2021/01/29 10:00:40;;;;;;;4.28;0.35;;;15.70;43.50;;;;;;4967360;28;20034;-91
2021/01/29 10:03:27;;;;;;;3.53;0.50;;;15.80;54.10;;;;;;4971501;28;20054;-87
2021/01/29 10:06:04;;;;;;;0.30;0.30;;;15.90;42.70;;;;;;4971414;28;20110;-85
2021/01/29 10:08:46;;;;;;;0.55;0.38;;;15.70;41.30;;;;;;4972740;28;20416;-84
2021/01/29 10:11:29;;;;;;;1.55;0.65;;;15.80;41.60;;;;;;4973347;28;20027;-86
2021/01/29 10:14:20;;;;;;;2.97;1.02;;;15.80;60.00;;;;;;4968674;28;20039;-86
2021/01/29 10:16:57;;;;;;;1.08;0.65;;;15.60;60.90;;;;;;4972265;28;20038;-86
2021/01/29 10:19:26;;;;;;;;;;;15.60;40.60;;;;;;4968944;28;20513;-85
2021/01/29 10:21:58;;;;;;;3.13;0.68;;;15.60;41.40;;;;;;4972356;28;20398;-85
2021/01/29 10:24:54;;;;;;;1.27;0.50;;;15.40;41.00;;;;;;4971804;28;20038;-85
2021/01/29 10:27:42;;;;;;;1.65;0.60;;;15.20;41.40;;;;;;4975545;28;20407;-87
2021/01/29 10:30:18;;;;;;;1.33;1.27;;;;;;;;;;4970516;28;20065;-86
2021/01/29 10:32:53;;;;;;;6.32;0.40;;;;;;;;;;4972172;28;20594;-86
2021/01/29 10:35:19;;;;;;;6.65;0.47;;;;;;;;;;4969994;28;20038;-87
2021/01/29 10:37:54;;;;;;;2.90;0.40;;;;;;;;;;4972138;28;20439;-86
2021/01/29 10:40:34;;;;;;;0.35;0.30;;;;;;;;;;4970558;28;20492;-86
2021/01/29 10:43:29;;;;;;;1.67;0.40;;;14.80;43.90;;;;;;4961724;28;20488;-85
2021/01/29 10:46:01;;;;;;;11.68;1.15;;;;;;;;;;4963378;28;20030;-87
2021/01/29 10:48:27;;;;;;;2.67;0.70;;;;;;;;;;4965341;28;20023;-86
2021/01/29 10:51:16;;;;;;;3.08;0.40;;;;;;;;;;4969205;28;20498;-87
2021/01/29 10:53:43;;;;;;;2.28;0.75;;;;;;;;;;4963272;28;20050;-88
2021/01/29 10:56:13;;;;;;;1.38;0.60;;;;;;;;;;4971297;28;20038;-87
2021/01/29 10:59:10;;;;;;;4.28;1.77;;;14.70;43.10;;;;;;4971103;28;20022;-87
2021/01/29 11:01:45;;;;;;;0.82;0.45;;;;;;;;;;4971552;28;20046;-86
2021/01/29 11:04:23;;;;;;;0.45;0.40;;;;;;;;;;4967175;28;20038;-86
2021/01/29 11:06:58;;;;;;;0.93;0.70;;;;;;;;;;4971651;28;20041;-86
2021/01/29 11:09:29;;;;;;;3.65;0.57;;;15.60;41.90;;;;;;4971953;28;20478;-86
2021/01/29 11:12:12;;;;;;;5.25;0.70;;;15.60;42.90;;;;;;4971499;28;20043;-87
2021/01/29 11:14:50;;;;;;;1.75;0.70;;;15.80;42.30;;;;;;4960446;28;20035;-85
2021/01/29 11:17:40;;;;;;;3.65;1.90;;;15.60;41.40;;;;;;4955887;28;20035;-86
2021/01/29 11:20:20;;;;;;;1.67;0.93;;;15.50;41.60;;;;;;4971880;28;20031;-89
2021/01/29 11:23:00;;;;;;;6.03;0.43;;;15.50;41.10;;;;;;4966755;28;20031;-95
2021/01/29 11:25:52;;;;;;;1.25;0.43;;;15.50;41.10;;;;;;4969378;28;20039;-86
2021/01/29 11:28:32;;;;;;;1.13;0.75;;;15.40;41.30;;;;;;4971549;28;20182;-87
2021/01/29 11:31:01;;;;;;;5.47;0.98;;;;;;;;;;4967146;28;20168;-87
2021/01/29 11:33:30;;;;;;;2.28;1.13;;;15.30;42.40;;;;;;4971024;28;20117;-86
2021/01/29 11:36:23;;;;;;;3.88;1.10;;;15.30;60.40;;;;;;4969176;28;20121;-86
2021/01/29 11:38:58;;;;;;;1.67;1.00;;;15.50;41.40;;;;;;4969128;28;20034;-85
2021/01/29 11:41:33;;;;;;;7.38;0.90;;;15.50;46.20;;;;;;4970684;28;20026;-86
2021/01/29 11:44:02;;;;;;;3.95;1.05;;;;;;;;;;4970920;28;20488;-85
2021/01/29 11:46:36;;;;;;;0.57;0.35;;;14.90;40.20;;;;;;4970619;28;20038;-86
2021/01/29 11:49:02;;;;;;;1.55;0.65;;;;;;;;;;4970769;28;20101;-84
2021/01/29 11:51:36;;;;;;;0.50;0.38;;;14.40;41.10;;;;;;4964775;28;20030;-84
2021/01/29 11:54:23;;;;;;;3.00;0.75;;;14.50;41.60;;;;;;4970236;28;20130;-85
2021/01/29 11:56:49;;;;;;;;;;;14.40;40.80;;;;;;4969394;28;20514;-84
2021/01/29 11:59:59;;;;;;;0.88;0.88;;;14.20;61.50;;;;;;4971664;28;19906;-86
2021/01/29 12:02:36;;;;;;;4.25;0.60;;;14.30;42.30;;;;;;4956329;28;20055;-87
2021/01/29 12:05:13;;;;;;;;;;;14.20;42.70;;;;;;4971077;28;20031;-85
2021/01/29 12:08:02;;;;;;;1.98;0.77;;;14.20;61.60;;;;;;4970378;28;19910;-85
2021/01/29 12:10:32;;;;;;;4.60;0.60;;;14.10;42.80;;;;;;4966141;28;20586;-85
2021/01/29 12:13:38;;;;;;;1.05;0.77;;;13.90;42.50;;;;;;4966805;28;22333;-87
2021/01/29 12:16:18;;;;;;;0.77;0.77;;;14.00;42.80;;;;;;4940710;29;20035;-87
2021/01/29 12:18:48;;;;;;;4.22;0.70;;;13.80;42.70;;;;;;4933320;29;20244;-85
2021/01/29 12:21:44;;;;;;;3.28;0.52;;;13.80;47.60;;;;;;4930077;29;20691;-84
2021/01/29 12:24:28;;;;;;;2.58;1.20;;;13.80;43.30;;;;;;4912780;29;20036;-86
2021/01/29 12:27:15;;;;;;;1.92;0.80;;;13.90;42.50;;;;;;4930745;29;20036;-86
2021/01/29 12:29:49;;;;;;;2.15;0.70;;;13.90;62.20;;;;;;4944755;29;20076;-86
2021/01/29 12:32:21;;;;;;;1.00;0.70;;;13.90;61.30;;;;;;4934524;29;20043;-85
2021/01/29 12:35:07;;;;;;;2.10;0.75;;;13.90;42.70;;;;;;4916639;29;20151;-85
2021/01/29 12:37:36;;;;;;;8.48;0.98;;;14.00;42.80;;;;;;4914832;29;20044;-86
2021/01/29 12:40:13;;;;;;;1.38;0.60;;;14.00;43.20;;;;;;4933277;29;20090;-85
2021/01/29 12:42:39;;;;;;;2.08;0.80;;;;;;;;;;4933521;29;20024;-85
2021/01/29 12:45:12;;;;;;;1.83;0.60;;;13.80;43.50;;;;;;4913239;29;20039;-85
2021/01/29 12:47:44;;;;;;;1.35;0.50;;;;;;;;;;4945024;28;20031;-84
2021/01/29 12:50:33;;;;;;;4.60;0.70;;;13.80;63.70;;;;;;4933195;29;20357;-85
2021/01/29 12:53:22;;;;;;;7.18;1.20;;;13.70;45.70;;;;;;4965709;28;20042;-86
2021/01/29 12:56:05;;;;;;;7.88;1.48;;;13.50;46.60;;;;;;4929444;29;20601;-84
2021/01/29 12:58:41;;;;;;;3.28;0.90;;;13.40;47.30;;;;;;4926313;29;20044;-88
2021/01/29 13:01:13;;;;;;;2.67;0.95;;;13.40;48.90;;;;;;4929559;29;20148;-85
2021/01/29 13:03:39;;;;;;;10.13;1.05;;;;;;;;;;4929090;29;20076;-86
2021/01/29 13:06:40;;;;;;;6.35;0.63;;;13.70;48.30;;;;;;4932474;29;20035;-85
2021/01/29 13:09:24;;;;;;;8.98;0.77;;;13.80;47.00;;;;;;4874126;29;20116;-86
2021/01/29 13:12:25;;;;;;;0.90;0.63;;;14.00;46.00;;;;;;4891117;29;20028;-86
2021/01/29 13:15:30;;;;;;;3.55;0.60;;;14.00;44.50;;;;;;4890222;29;20037;-87
2021/01/29 13:18:06;;;;;;;1.40;0.47;;;14.00;43.90;;;;;;4890144;29;20041;-87
2021/01/29 13:20:37;;;;;;;6.75;0.73;;;14.00;62.90;;;;;;4892340;29;20104;-85
2021/01/29 13:23:24;;;;;;;3.92;1.05;;;14.00;58.50;;;;;;4879511;29;20164;-88
2021/01/29 13:26:03;;;;;;;8.63;0.82;;;13.80;42.70;;;;;;4879281;29;20085;-87
2021/01/29 13:28:32;;;;;;;6.13;0.80;;;13.70;43.60;;;;;;4879839;29;20489;-88
2021/01/29 13:31:30;;;;;;;7.13;0.98;;;13.60;63.30;;;;;;4880353;29;20033;-86
2021/01/29 13:34:00;;;;;;;4.82;1.45;;;13.30;43.20;;;;;;4835497;29;20050;-87
2021/01/29 13:36:34;;;;;;;0.65;0.65;;;13.20;44.30;;;;;;4850739;29;20129;-87
2021/01/29 13:39:14;;;;;;;2.90;1.55;;;13.60;44.70;;;;;;4837827;29;20046;-87
2021/01/29 13:41:50;;;;;;;2.63;0.70;;;13.30;43.20;;;;;;4854171;29;20041;-86
2021/01/29 13:44:39;;;;;;;3.15;0.77;;;13.50;63.30;;;;;;4841992;29;20536;-87
2021/01/29 13:47:19;;;;;;;2.53;1.00;;;13.70;44.30;;;;;;4873551;29;20482;-87
2021/01/29 13:49:46;;;;;;;2.50;1.23;;;;;;;;;;4872680;29;20041;-87
2021/01/29 13:52:21;;;;;;;5.97;1.42;;;;;;;;;;4872503;29;20451;-85
2021/01/29 13:54:47;;;;;;;3.75;0.95;;;;;;;;;;4872797;29;20096;-87
2021/01/29 13:57:28;;;;;;;1.23;0.80;;;13.70;42.60;;;;;;4873083;29;20041;-87
2021/01/29 14:00:01;;;;;;;7.18;1.00;;;13.60;43.30;;;;;;4874419;29;20085;-87
2021/01/29 14:02:39;;;;;;;4.03;0.90;;;13.40;47.30;;;;;;4876185;29;20052;-86
2021/01/29 14:05:18;;;;;;;5.75;1.17;;;13.30;44.10;;;;;;4872759;29;20581;-86
2021/01/29 14:07:46;;;;;;;1.90;0.90;;;13.10;44.60;;;;;;4874799;29;20025;-84
2021/01/29 14:10:34;;;;;;;2.53;0.73;;;13.30;44.00;;;;;;4950018;28;20059;-86
2021/01/29 14:13:29;;;;;;;2.42;0.70;;;13.30;43.90;;;;;;4972291;28;20046;-85
2021/01/29 14:16:14;;;;;;;2.22;0.95;;;13.50;62.70;;;;;;4971308;28;20042;-85
2021/01/29 14:19:12;;;;;;;4.80;0.60;;;13.40;43.30;;;;;;4968462;28;20050;-85